Time;durP1;ratioP1;P1;durP2;ratioP2;P2;SDS_P1;SDS_P2;PMS_P1;PMS_P2;Temp;Humidity;BMP_temperature;BMP_pressure;BME280_temperature;BME280_humidity;BME280_pressure;Samples;Min_cycle;Max_cycle;Signal;HPM_P1;HPM_P2
2022/05/17 00:02:39;;;;;;;2.97;2.20;;;14.50;91.50;;;;;;12815644;23;20548;-78
2022/05/17 00:07:41;;;;;;;2.72;2.00;;;14.90;93.60;;;;;;12791149;23;20206;-78
2022/05/17 00:12:44;;;;;;;5.93;2.58;;;15.60;91.10;;;;;;12793120;23;20556;-78
2022/05/17 00:17:48;;;;;;;9.88;3.30;;;15.40;91.80;;;;;;12792654;23;20221;-78
2022/05/17 00:22:51;;;;;;;5.20;2.40;;;15.10;90.50;;;;;;12815663;23;20238;-78
2022/05/17 00:27:54;;;;;;;6.18;3.25;;;15.10;93.40;;;;;;12792315;23;20172;-78
2022/05/17 00:33:05;;;;;;;9.65;3.20;;;15.20;90.20;;;;;;12791379;23;20498;-78
2022/05/17 00:38:07;;;;;;;6.13;3.40;;;15.20;91.70;;;;;;12792683;23;20218;-78
2022/05/17 00:43:14;;;;;;;9.38;3.05;;;14.90;89.80;;;;;;12790790;23;20251;-80
2022/05/17 00:48:19;;;;;;;6.23;4.27;;;13.60;92.80;;;;;;12811975;23;20184;-80
2022/05/17 00:53:34;;;;;;;9.10;4.60;;;14.20;91.40;;;;;;12792876;23;20230;-80
2022/05/17 00:59:07;;;;;;;6.25;3.40;;;14.40;94.70;;;;;;12790201;23;20184;-79
2022/05/17 01:04:28;;;;;;;2.75;1.95;;;14.40;94.10;;;;;;12813041;23;20245;-79
2022/05/17 01:09:30;;;;;;;3.15;2.30;;;15.20;91.40;;;;;;12793015;23;20569;-79
2022/05/17 01:19:54;;;;;;;4.53;3.05;;;15.80;90.50;;;;;;12790481;23;20907;-79
2022/05/17 01:24:57;;;;;;;8.82;4.90;;;15.90;90.30;;;;;;12791874;23;20640;-79
2022/05/17 01:30:00;;;;;;;4.85;3.45;;;16.50;89.80;;;;;;12790682;23;20522;-79
2022/05/17 01:35:02;;;;;;;7.75;4.13;;;16.30;89.40;;;;;;12791548;23;20234;-79
2022/05/17 01:40:05;;;;;;;9.32;5.20;;;16.00;90.20;;;;;;12791057;23;20238;-80
2022/05/17 01:45:08;;;;;;;5.00;3.67;;;15.30;87.10;;;;;;12788627;23;20187;-79
2022/05/17 01:50:11;;;;;;;3.90;2.90;;;14.20;95.30;;;;;;12792156;23;20191;-79
2022/05/17 01:55:14;;;;;;;2.67;2.40;;;15.20;93.60;;;;;;12790279;23;20168;-79
2022/05/17 02:00:19;;;;;;;5.72;3.17;;;15.80;92.20;;;;;;12818891;23;20222;-80
2022/05/17 02:05:23;;;;;;;9.18;5.32;;;15.70;91.70;;;;;;12790354;23;20553;-80
2022/05/17 02:10:26;;;;;;;4.78;3.00;;;15.60;91.10;;;;;;12789396;23;20202;-79
2022/05/17 02:15:29;;;;;;;8.23;3.95;;;16.10;91.50;;;;;;12813906;23;20198;-80
2022/05/17 02:20:31;;;;;;;4.32;2.72;;;16.70;89.10;;;;;;12791207;23;20218;-80
2022/05/17 02:25:36;;;;;;;8.63;4.65;;;16.00;90.70;;;;;;12790577;23;20207;-79
2022/05/17 02:30:43;;;;;;;3.95;2.42;;;16.10;89.30;;;;;;12793059;23;20179;-79
2022/05/17 02:35:45;;;;;;;9.35;5.82;;;16.20;91.10;;;;;;12789184;23;20180;-79
2022/05/17 02:40:48;;;;;;;8.18;5.15;;;15.40;88.70;;;;;;12801254;23;20539;-79
2022/05/17 02:45:51;;;;;;;7.32;4.85;;;15.10;90.60;;;;;;12794086;23;20172;-79
2022/05/17 02:50:53;;;;;;;12.20;5.78;;;15.30;91.60;;;;;;12810995;23;20524;-79
2022/05/17 02:55:56;;;;;;;9.05;4.57;;;15.00;90.70;;;;;;12811992;23;20167;-79
2022/05/17 03:00:58;;;;;;;11.02;5.70;;;15.20;92.10;;;;;;12794071;23;20239;-79
2022/05/17 03:06:00;;;;;;;5.18;3.47;;;15.50;91.30;;;;;;12810597;23;20172;-79
2022/05/17 03:11:05;;;;;;;5.65;3.75;;;16.30;90.90;;;;;;12794031;23;20530;-79
2022/05/17 03:16:07;;;;;;;3.45;2.00;;;17.10;86.80;;;;;;12792048;23;20183;-80
2022/05/17 03:21:12;;;;;;;2.40;2.20;;;16.90;89.00;;;;;;12810115;23;20215;-80
2022/05/17 03:26:15;;;;;;;4.40;3.90;;;16.60;88.20;;;;;;12794179;23;20171;-79
2022/05/17 03:31:19;;;;;;;5.95;3.13;;;15.60;85.80;;;;;;12791388;23;20682;-80
2022/05/17 03:36:22;;;;;;;6.38;3.63;;;15.90;85.40;;;;;;12811144;23;20168;-79
2022/05/17 03:41:24;;;;;;;5.80;2.83;;;15.90;86.10;;;;;;12790518;23;20246;-80
2022/05/17 03:46:27;;;;;;;5.10;3.20;;;16.20;89.00;;;;;;12792929;23;20172;-80
2022/05/17 03:51:29;;;;;;;2.38;1.73;;;16.70;88.80;;;;;;12793698;23;20638;-80
2022/05/17 03:56:32;;;;;;;8.38;3.45;;;17.30;86.50;;;;;;12791080;23;20623;-80
2022/05/17 04:01:34;;;;;;;2.28;1.92;;;16.60;81.30;;;;;;12807586;23;20171;-79
2022/05/17 04:06:37;;;;;;;2.33;2.08;;;16.70;87.60;;;;;;12793084;23;20195;-79
2022/05/17 04:11:40;;;;;;;3.45;2.40;;;17.40;85.40;;;;;;12811056;23;20250;-79
2022/05/17 04:16:42;;;;;;;3.35;2.40;;;17.70;84.40;;;;;;12831829;23;20163;-80
2022/05/17 04:21:45;;;;;;;4.57;2.75;;;17.60;82.10;;;;;;12789988;23;20246;-80
2022/05/17 04:26:47;;;;;;;4.88;3.00;;;17.50;78.80;;;;;;12790064;23;20635;-80
2022/05/17 04:31:50;;;;;;;8.18;2.60;;;17.70;79.00;;;;;;12763322;23;20215;-80
2022/05/17 04:36:52;;;;;;;2.33;1.70;;;16.50;83.00;;;;;;12791105;23;20472;-80
2022/05/17 04:41:55;;;;;;;4.07;2.50;;;16.90;85.60;;;;;;12792477;23;20199;-80
2022/05/17 04:46:57;;;;;;;4.43;1.75;;;17.00;84.90;;;;;;12810278;23;20375;-80
2022/05/17 04:52:00;;;;;;;3.65;2.40;;;17.40;84.90;;;;;;12811797;23;20172;-80
2022/05/17 04:57:04;;;;;;;8.73;3.00;;;17.90;80.70;;;;;;12804917;23;20172;-79
2022/05/17 05:02:06;;;;;;;8.88;3.53;;;17.70;77.90;;;;;;12793051;23;20172;-79
2022/05/17 05:07:09;;;;;;;1.65;1.33;;;17.10;77.50;;;;;;12808274;23;20222;-79
2022/05/17 05:12:11;;;;;;;9.05;4.07;;;17.60;83.90;;;;;;12788150;23;20261;-79
2022/05/17 05:17:14;;;;;;;2.13;1.42;;;17.30;77.20;;;;;;12788759;23;20179;-79
2022/05/17 05:22:16;;;;;;;2.33;1.52;;;17.60;83.10;;;;;;12790944;23;20225;-78
2022/05/17 05:27:19;;;;;;;2.10;1.80;;;18.20;81.00;;;;;;12807983;23;20244;-78
2022/05/17 05:32:21;;;;;;;10.05;3.63;;;18.10;79.60;;;;;;12814352;23;20187;-78
2022/05/17 05:37:24;;;;;;;3.28;1.52;;;18.40;76.80;;;;;;12791305;23;20629;-78
2022/05/17 05:42:26;;;;;;;3.85;1.60;;;18.60;78.20;;;;;;12791094;23;20266;-78
2022/05/17 05:47:30;;;;;;;3.72;2.17;;;19.20;75.90;;;;;;12809475;23;20175;-78
2022/05/17 05:52:33;;;;;;;3.97;1.63;;;18.50;74.90;;;;;;12790780;23;20192;-78
2022/05/17 05:57:36;;;;;;;1.25;1.15;;;19.00;74.40;;;;;;12806890;23;20623;-78
2022/05/17 06:02:39;;;;;;;7.70;2.08;;;18.70;77.30;;;;;;12807762;23;20222;-78
2022/05/17 06:07:41;;;;;;;4.32;3.03;;;18.80;74.20;;;;;;12790975;23;20172;-78
2022/05/17 06:12:45;;;;;;;3.78;2.67;;;18.70;73.40;;;;;;12791020;23;20582;-78
2022/05/17 06:17:49;;;;;;;7.70;2.55;;;18.60;72.80;;;;;;12808594;23;20167;-78
2022/05/17 06:22:51;;;;;;;7.50;2.40;;;18.70;71.80;;;;;;12818819;23;20230;-78
2022/05/17 06:27:54;;;;;;;5.05;2.22;;;18.80;75.00;;;;;;12792823;23;20187;-78
2022/05/17 06:32:57;;;;;;;2.15;1.73;;;19.00;73.70;;;;;;12792591;23;20745;-78
2022/05/17 06:37:59;;;;;;;8.10;2.25;;;18.50;74.60;;;;;;12785213;23;20223;-78
2022/05/17 06:43:03;;;;;;;2.83;2.25;;;19.10;71.80;;;;;;12813490;23;20270;-78
2022/05/17 06:48:06;;;;;;;3.10;1.60;;;19.20;72.40;;;;;;12790562;23;20183;-78
2022/05/17 06:53:10;;;;;;;3.72;2.38;;;19.10;74.50;;;;;;12809384;23;20188;-78
2022/05/17 06:58:13;;;;;;;2.38;2.05;;;18.80;71.40;;;;;;12789424;23;20184;-78
2022/05/17 07:03:15;;;;;;;3.78;2.00;;;18.90;69.80;;;;;;12790379;23;20188;-78
2022/05/17 07:08:19;;;;;;;3.60;1.92;;;19.10;74.10;;;;;;12794699;23;20172;-78
2022/05/17 07:13:21;;;;;;;2.38;1.90;;;19.20;72.70;;;;;;12807717;23;20525;-79
2022/05/17 07:18:25;;;;;;;7.25;2.88;;;19.20;71.10;;;;;;12811444;23;20281;-78
2022/05/17 07:23:28;;;;;;;7.82;2.13;;;19.10;72.40;;;;;;12792070;23;20246;-78
2022/05/17 07:28:30;;;;;;;5.97;1.67;;;18.70;71.60;;;;;;12791406;23;20937;-78
2022/05/17 07:33:33;;;;;;;3.20;1.70;;;18.40;72.30;;;;;;12789408;23;20183;-78
2022/05/17 07:38:36;;;;;;;5.43;1.95;;;18.90;74.30;;;;;;12788004;23;20219;-78
2022/05/17 07:43:39;;;;;;;4.57;1.85;;;19.00;72.40;;;;;;12788234;23;20246;-78
2022/05/17 07:48:41;;;;;;;4.15;1.98;;;18.50;69.90;;;;;;12789390;23;20172;-78
2022/05/17 07:53:44;;;;;;;4.13;2.63;;;18.90;71.70;;;;;;12788831;23;20191;-78
2022/05/17 07:58:46;;;;;;;3.17;1.63;;;19.30;72.80;;;;;;12800899;23;20168;-78
2022/05/17 08:03:49;;;;;;;5.45;1.45;;;19.30;68.70;;;;;;12812487;23;20566;-79
2022/05/17 08:08:51;;;;;;;4.22;1.38;;;19.00;67.10;;;;;;12788652;23;20167;-78
2022/05/17 08:13:53;;;;;;;3.63;1.58;;;19.10;69.70;;;;;;12786015;23;20234;-79
2022/05/17 08:19:14;;;;;;;2.92;1.58;;;19.00;69.30;;;;;;12787114;23;20180;-79
2022/05/17 08:24:16;;;;;;;13.43;1.85;;;18.90;72.30;;;;;;12791697;23;20183;-79
2022/05/17 08:29:19;;;;;;;3.70;1.58;;;18.90;66.80;;;;;;12797991;23;20226;-79
2022/05/17 08:34:21;;;;;;;5.55;1.42;;;19.20;70.10;;;;;;12789008;23;20219;-79
2022/05/17 08:39:26;;;;;;;1.27;1.17;;;19.20;66.50;;;;;;12785515;23;20594;-79
2022/05/17 08:44:49;;;;;;;2.42;1.25;;;19.70;68.20;;;;;;12786434;23;20172;-78
2022/05/17 08:49:58;;;;;;;3.05;1.95;;;19.90;70.70;;;;;;12804382;23;20195;-79
2022/05/17 08:55:02;;;;;;;2.67;1.15;;;20.20;70.50;;;;;;12805555;23;20472;-77
2022/05/17 09:00:10;;;;;;;4.72;1.17;;;20.40;66.80;;;;;;12784101;23;20234;-78
2022/05/17 09:05:19;;;;;;;1.80;1.30;;;20.30;64.80;;;;;;12806041;23;20484;-79
2022/05/17 09:10:36;;;;;;;1.60;1.33;;;20.60;69.40;;;;;;12783814;23;20200;-78
2022/05/17 09:15:39;;;;;;;2.47;1.33;;;20.60;68.00;;;;;;12761140;23;20184;-78
2022/05/17 09:20:42;;;;;;;11.80;2.45;;;20.50;63.50;;;;;;12786506;23;20197;-78
2022/05/17 09:25:56;;;;;;;2.58;1.50;;;20.40;66.10;;;;;;12809408;23;20226;-78
2022/05/17 09:31:11;;;;;;;1.50;1.38;;;20.60;68.30;;;;;;12785815;23;20588;-78
2022/05/17 09:36:24;;;;;;;2.75;1.50;;;20.60;66.50;;;;;;12802617;23;20167;-78
2022/05/17 09:41:34;;;;;;;2.65;0.98;;;20.60;64.80;;;;;;12807854;23;20678;-77
2022/05/17 09:47:05;;;;;;;5.68;1.52;;;19.90;64.30;;;;;;12810396;23;20179;-79
2022/05/17 09:52:42;;;;;;;4.78;1.25;;;20.10;66.80;;;;;;12826455;23;20242;-78
2022/05/17 09:57:53;;;;;;;5.72;1.10;;;20.40;63.40;;;;;;12810544;23;20179;-78
2022/05/17 10:03:03;;;;;;;3.80;1.17;;;20.10;64.50;;;;;;12806504;23;20507;-78
2022/05/17 10:08:28;;;;;;;4.60;2.00;;;19.80;64.30;;;;;;12788241;23;20558;-78
2022/05/17 10:13:38;;;;;;;5.38;1.23;;;20.40;66.00;;;;;;12600067;23;20233;-79
2022/05/17 10:18:44;;;;;;;25.15;2.42;;;20.40;63.40;;;;;;12605461;23;20178;-78
2022/05/17 10:24:11;;;;;;;3.47;1.30;;;20.60;67.00;;;;;;12571750;23;20261;-78
2022/05/17 10:29:23;;;;;;;7.78;1.45;;;20.80;65.80;;;;;;12599438;23;20669;-78
2022/05/17 10:34:46;;;;;;;5.18;1.55;;;20.70;66.80;;;;;;12584677;23;20316;-79
2022/05/17 10:40:11;;;;;;;3.33;0.85;;;20.50;63.80;;;;;;12589202;23;20205;-79
2022/05/17 10:45:33;;;;;;;1.40;1.23;;;20.20;60.80;;;;;;12573811;23;20186;-79
2022/05/17 10:51:03;;;;;;;2.25;1.00;;;20.60;64.00;;;;;;12742673;23;20257;-78
2022/05/17 10:56:17;;;;;;;7.07;1.17;;;20.40;61.90;;;;;;12786511;23;20160;-78
2022/05/17 11:01:24;;;;;;;2.00;1.20;;;20.40;64.20;;;;;;12787362;23;20511;-78
2022/05/17 11:06:40;;;;;;;2.85;1.17;;;20.30;66.20;;;;;;12782161;23;20203;-78
2022/05/17 11:12:09;;;;;;;1.70;1.38;;;20.70;67.20;;;;;;12808542;23;20191;-78
2022/05/17 11:17:50;;;;;;;4.65;1.30;;;20.80;63.50;;;;;;12807827;23;20197;-79
2022/05/17 11:23:20;;;;;;;9.25;1.30;;;21.00;64.50;;;;;;12808255;23;20227;-79
2022/05/17 11:28:46;;;;;;;1.33;1.23;;;20.90;60.00;;;;;;12806576;23;20199;-79
2022/05/17 11:33:48;;;;;;;3.58;1.92;;;;;;;;;;12814961;23;20188;-79
2022/05/17 11:38:52;;;;;;;1.92;0.90;;;21.10;64.40;;;;;;12790991;23;20203;-79
2022/05/17 11:43:55;;;;;;;3.38;1.50;;;21.30;64.90;;;;;;12788878;23;20262;-79
2022/05/17 11:49:01;;;;;;;4.60;1.38;;;21.30;59.00;;;;;;12786920;23;20176;-79
2022/05/17 11:54:08;;;;;;;1.33;1.23;;;21.20;62.30;;;;;;12786394;23;20302;-79
2022/05/17 11:59:13;;;;;;;3.28;1.33;;;21.30;58.40;;;;;;12800100;23;20235;-79
2022/05/17 12:04:22;;;;;;;1.88;1.20;;;21.20;61.40;;;;;;12786592;23;20650;-80
2022/05/17 12:09:53;;;;;;;3.20;1.10;;;21.00;56.00;;;;;;12783041;23;20180;-77
2022/05/17 12:15:16;;;;;;;1.40;0.95;;;21.30;62.70;;;;;;12748141;23;20281;-77
2022/05/17 12:20:40;;;;;;;3.63;1.45;;;21.40;64.10;;;;;;12803181;23;20167;-76
2022/05/17 12:25:54;;;;;;;7.18;1.98;;;21.30;63.30;;;;;;12784021;23;20570;-77
2022/05/17 12:31:21;;;;;;;1.08;0.93;;;21.40;56.60;;;;;;12783949;23;20199;-76
2022/05/17 12:36:31;;;;;;;8.95;1.10;;;21.20;56.10;;;;;;12804368;23;20164;-77
2022/05/17 12:47:00;;;;;;;7.13;2.03;;;20.90;60.70;;;;;;12788956;23;20253;-76
2022/05/17 12:52:34;;;;;;;1.58;0.77;;;21.10;57.50;;;;;;12788172;23;20227;-77
2022/05/17 12:57:39;;;;;;;8.23;1.65;;;21.10;57.70;;;;;;12805996;23;20172;-77
2022/05/17 13:02:56;;;;;;;2.97;1.20;;;20.80;57.90;;;;;;12788669;23;20172;-77
2022/05/17 13:08:07;;;;;;;42.80;4.07;;;20.60;57.20;;;;;;12803656;23;20514;-78
2022/05/17 13:13:20;;;;;;;10.27;1.80;;;20.80;63.60;;;;;;12802564;23;20191;-78
2022/05/17 13:18:32;;;;;;;2.70;1.08;;;20.90;57.00;;;;;;12803767;23;20168;-78
2022/05/17 13:23:36;;;;;;;4.32;0.90;;;20.80;59.00;;;;;;12784816;23;20184;-78
2022/05/17 13:28:38;;;;;;;2.65;1.40;;;21.10;59.80;;;;;;12788176;23;20641;-78
2022/05/17 13:33:52;;;;;;;3.22;0.95;;;21.20;62.00;;;;;;12788998;23;20227;-78
2022/05/17 13:38:55;;;;;;;11.32;1.40;;;21.20;61.30;;;;;;12806472;23;20168;-78
2022/05/17 13:44:00;;;;;;;3.03;1.30;;;21.40;57.30;;;;;;12823886;23;20257;-77
2022/05/17 13:49:15;;;;;;;1.48;1.25;;;21.40;56.40;;;;;;12787375;23;20457;-77
2022/05/17 13:54:26;;;;;;;6.10;1.05;;;21.40;63.90;;;;;;12805587;23;20191;-78
2022/05/17 13:59:30;;;;;;;1.33;0.82;;;21.50;55.90;;;;;;12789656;23;20227;-77
2022/05/17 14:04:35;;;;;;;3.28;1.00;;;21.30;52.50;;;;;;12789495;23;20214;-78
2022/05/17 14:15:00;;;;;;;1.27;1.15;;;21.00;60.10;;;;;;12787216;23;20242;-78
2022/05/17 14:20:05;;;;;;;4.82;0.95;;;21.20;59.90;;;;;;12785114;23;20819;-78
2022/05/17 14:25:08;;;;;;;4.03;1.25;;;20.90;57.00;;;;;;12789319;23;20612;-78
2022/05/17 14:30:13;;;;;;;5.82;1.15;;;21.10;62.00;;;;;;12788771;23;20524;-78
2022/05/17 14:35:19;;;;;;;5.10;0.90;;;21.10;60.70;;;;;;12789791;23;20183;-78
2022/05/17 14:40:23;;;;;;;2.55;1.20;;;21.30;55.70;;;;;;12803353;23;20813;-77
2022/05/17 14:45:26;;;;;;;1.15;1.02;;;21.30;61.60;;;;;;12791679;23;20215;-77
2022/05/17 14:50:29;;;;;;;1.75;1.00;;;21.30;65.50;;;;;;12795857;23;20408;-78
2022/05/17 14:55:32;;;;;;;1.77;1.10;;;21.40;61.30;;;;;;12792455;23;20191;-77
2022/05/17 15:00:36;;;;;;;2.55;0.90;;;21.40;66.10;;;;;;12790326;23;20260;-78
2022/05/17 15:05:42;;;;;;;4.80;1.10;;;21.30;56.20;;;;;;12794070;23;20172;-77
2022/05/17 15:10:45;;;;;;;2.42;1.00;;;20.70;56.60;;;;;;12793742;23;20230;-78
2022/05/17 15:15:51;;;;;;;4.93;1.00;;;20.40;57.40;;;;;;12787878;23;20261;-77
2022/05/17 15:20:56;;;;;;;4.75;1.20;;;20.60;55.70;;;;;;12832796;23;20638;-77
2022/05/17 15:26:03;;;;;;;3.22;1.10;;;20.80;60.40;;;;;;12725223;23;20269;-77
2022/05/17 15:31:07;;;;;;;2.60;1.10;;;20.40;55.90;;;;;;12610202;23;20225;-78
2022/05/17 15:36:10;;;;;;;3.90;1.00;;;20.40;56.60;;;;;;12606000;23;20249;-78
2022/05/17 15:41:12;;;;;;;8.18;2.20;;;20.40;57.20;;;;;;12608764;23;20205;-78
2022/05/17 15:46:18;;;;;;;3.55;1.38;;;20.20;55.60;;;;;;12597322;23;20189;-83
2022/05/17 15:53:15;;;;;;;3.22;0.98;;;20.70;66.60;;;;;;12735072;23;20216;-84
2022/05/17 15:56:49;;;;;;;1.00;0.60;;;20.70;58.40;;;;;;12746405;23;20228;-83
2022/05/17 16:01:55;;;;;;;1.33;1.08;;;21.00;60.80;;;;;;12709170;23;20236;-83
2022/05/17 16:08:01;;;;;;;2.40;0.90;;;20.80;62.30;;;;;;12733226;23;20232;-83
2022/05/17 16:12:25;;;;;;;1.73;1.10;;;21.00;60.50;;;;;;12735082;23;20244;-83
2022/05/17 16:17:27;;;;;;;4.38;1.13;;;20.80;59.50;;;;;;12735833;23;20217;-88
2022/05/17 16:22:33;;;;;;;3.78;1.08;;;20.30;59.30;;;;;;12715284;23;20543;-85
2022/05/17 16:27:37;;;;;;;1.73;0.80;;;20.30;56.20;;;;;;12710220;23;20169;-84
2022/05/17 16:32:41;;;;;;;2.53;0.93;;;20.10;54.40;;;;;;12701011;23;20236;-84
2022/05/17 16:37:45;;;;;;;4.47;0.95;;;20.30;61.20;;;;;;12685024;23;20170;-84
2022/05/17 16:42:50;;;;;;;3.13;0.98;;;21.10;59.80;;;;;;12705250;23;20174;-84
2022/05/17 16:47:54;;;;;;;4.30;1.10;;;21.10;58.70;;;;;;12662516;23;20201;-84
2022/05/17 16:52:57;;;;;;;2.08;1.13;;;21.30;56.50;;;;;;12687272;23;20189;-84
2022/05/17 16:58:00;;;;;;;3.80;0.80;;;21.50;61.60;;;;;;12690478;23;20165;-84
2022/05/17 17:03:03;;;;;;;5.32;0.77;;;21.40;60.00;;;;;;12691292;23;20173;-84
2022/05/17 17:08:06;;;;;;;3.17;0.70;;;21.20;60.50;;;;;;12662921;23;20239;-84
2022/05/17 17:13:12;;;;;;;1.35;0.93;;;21.10;59.80;;;;;;12688393;23;20197;-84
2022/05/17 17:18:15;;;;;;;5.70;0.70;;;21.20;63.10;;;;;;12689401;23;20369;-84
2022/05/17 17:23:17;;;;;;;4.03;0.85;;;21.00;54.10;;;;;;12662242;23;20718;-84
2022/05/17 17:28:20;;;;;;;1.25;0.90;;;20.70;52.90;;;;;;12681528;23;20225;-83
2022/05/17 17:38:44;;;;;;;4.32;1.58;;;20.40;55.90;;;;;;12694718;23;20196;-83
2022/05/17 17:43:47;;;;;;;1.20;0.88;;;20.20;62.80;;;;;;12677987;23;20169;-82
2022/05/17 17:48:50;;;;;;;1.38;0.60;;;20.30;64.80;;;;;;12669438;23;20213;-83
2022/05/17 17:53:53;;;;;;;1.45;0.70;;;20.50;60.80;;;;;;12665364;23;20240;-83
2022/05/17 17:58:59;;;;;;;1.25;0.90;;;20.20;64.90;;;;;;12670082;23;20173;-83
2022/05/17 18:04:02;;;;;;;6.22;0.80;;;19.90;61.30;;;;;;12667814;23;20189;-83
2022/05/17 18:09:05;;;;;;;7.30;1.02;;;19.40;57.50;;;;;;12668644;23;20169;-83
2022/05/17 18:14:08;;;;;;;6.53;1.33;;;19.00;59.90;;;;;;12666668;23;20630;-83
2022/05/17 18:19:13;;;;;;;4.00;1.00;;;18.30;60.30;;;;;;12672517;23;20205;-83
2022/05/17 18:24:16;;;;;;;2.08;1.02;;;17.90;63.60;;;;;;12668039;23;20243;-83
2022/05/17 18:29:27;;;;;;;6.15;1.00;;;18.20;66.10;;;;;;12668282;23;20173;-83
2022/05/17 18:39:52;;;;;;;5.50;1.02;;;18.00;61.60;;;;;;12683837;23;20165;-84
2022/05/17 18:44:56;;;;;;;3.08;1.55;;;18.00;67.50;;;;;;12666279;23;20378;-83
2022/05/17 18:50:02;;;;;;;2.08;1.10;;;18.10;58.20;;;;;;12663220;23;20279;-83
2022/05/17 18:55:13;;;;;;;2.67;1.33;;;18.40;68.10;;;;;;12683652;23;20193;-83
2022/05/17 19:00:22;;;;;;;5.10;1.50;;;18.40;65.30;;;;;;12683491;23;20220;-85
2022/05/17 19:05:50;;;;;;;5.10;1.25;;;18.10;54.50;;;;;;12690437;23;20185;-83
2022/05/17 19:16:15;;;;;;;4.63;1.70;;;17.20;63.10;;;;;;12684063;23;20245;-83
2022/05/17 19:21:57;;;;;;;4.13;1.35;;;17.30;69.70;;;;;;12690139;23;20228;-83
2022/05/17 19:27:01;;;;;;;4.05;1.48;;;17.40;70.50;;;;;;12522875;23;20179;-83
2022/05/17 19:32:05;;;;;;;3.15;1.10;;;17.60;65.00;;;;;;12499375;23;20833;-83
2022/05/17 19:42:43;;;;;;;3.53;1.33;;;17.60;67.60;;;;;;12517920;23;20214;-83
2022/05/17 19:47:53;;;;;;;9.27;1.75;;;17.70;68.20;;;;;;12541738;23;20215;-83
2022/05/17 19:52:55;;;;;;;2.90;1.20;;;18.00;67.80;;;;;;12552678;23;20194;-83
2022/05/17 19:57:58;;;;;;;2.00;1.15;;;18.00;64.20;;;;;;12539351;23;20177;-83
2022/05/17 20:03:04;;;;;;;1.50;1.10;;;18.10;71.90;;;;;;12669611;23;20173;-83
2022/05/17 20:08:08;;;;;;;4.60;1.05;;;18.10;61.30;;;;;;12693157;23;20185;-83
2022/05/17 20:13:12;;;;;;;6.07;1.67;;;16.70;66.50;;;;;;12670821;23;20193;-84
2022/05/17 20:18:14;;;;;;;3.05;1.40;;;16.70;55.40;;;;;;12667842;23;20185;-84
2022/05/17 20:23:17;;;;;;;6.97;1.88;;;16.60;71.30;;;;;;12668428;23;20181;-83
2022/05/17 20:28:20;;;;;;;1.70;1.20;;;16.60;60.10;;;;;;12668243;23;20730;-83
2022/05/17 20:33:40;;;;;;;7.85;1.55;;;16.70;73.10;;;;;;12668247;23;20661;-83
2022/05/17 20:38:43;;;;;;;2.05;0.90;;;16.60;59.20;;;;;;12686430;23;20504;-83
2022/05/17 20:43:47;;;;;;;1.80;1.07;;;16.50;74.10;;;;;;12669755;23;20203;-83
2022/05/17 20:48:49;;;;;;;1.07;0.93;;;16.90;76.20;;;;;;12692511;23;20260;-83
2022/05/17 20:53:52;;;;;;;1.10;1.00;;;17.30;70.20;;;;;;12669513;23;20260;-84
2022/05/17 20:58:55;;;;;;;2.83;0.98;;;17.70;73.40;;;;;;12687857;23;20548;-84
2022/05/17 21:03:58;;;;;;;1.00;0.88;;;17.40;73.50;;;;;;12643767;23;20177;-83
2022/05/17 21:09:02;;;;;;;2.00;1.13;;;17.00;73.70;;;;;;12643830;23;20185;-84
2022/05/17 21:14:06;;;;;;;2.80;1.40;;;16.40;67.60;;;;;;12668908;23;20189;-84
2022/05/17 21:19:28;;;;;;;2.25;1.00;;;16.50;73.10;;;;;;12668593;23;20220;-84
2022/05/17 21:24:30;;;;;;;1.42;0.85;;;17.10;69.80;;;;;;12662270;23;20169;-84
2022/05/17 21:29:38;;;;;;;1.35;0.80;;;16.40;68.30;;;;;;12668962;23;20208;-83
2022/05/17 21:34:41;;;;;;;1.23;1.00;;;17.60;74.50;;;;;;12643191;23;20193;-84
2022/05/17 21:39:47;;;;;;;2.20;1.10;;;17.50;64.50;;;;;;12666954;23;20501;-82
2022/05/17 21:44:51;;;;;;;1.30;1.08;;;16.90;75.10;;;;;;12669478;23;20173;-82
2022/05/17 21:49:54;;;;;;;3.85;1.15;;;17.00;73.40;;;;;;12668511;23;20201;-83
2022/05/17 21:54:56;;;;;;;0.98;0.68;;;17.10;64.10;;;;;;12668818;23;20527;-83
2022/05/17 22:00:28;;;;;;;1.83;0.98;;;16.90;75.40;;;;;;12669796;23;20516;-82
2022/05/17 22:05:32;;;;;;;2.03;0.95;;;16.70;74.80;;;;;;12642512;23;20625;-82
2022/05/17 22:16:03;;;;;;;4.97;0.95;;;17.70;71.90;;;;;;12685740;23;20236;-82
2022/05/17 22:21:06;;;;;;;1.27;0.70;;;17.60;62.00;;;;;;12644558;23;20169;-82
2022/05/17 22:26:10;;;;;;;1.85;0.75;;;17.40;71.10;;;;;;12687238;23;20220;-82
2022/05/17 22:31:13;;;;;;;1.25;0.60;;;17.40;74.40;;;;;;12669939;23;20169;-83
2022/05/17 22:36:16;;;;;;;1.42;0.77;;;17.70;73.40;;;;;;12669759;23;20277;-82
2022/05/17 22:41:19;;;;;;;0.85;0.75;;;17.90;72.80;;;;;;12670104;23;20169;-82
2022/05/17 22:51:42;;;;;;;1.30;0.60;;;17.40;68.50;;;;;;12688048;23;20173;-82
2022/05/17 22:56:44;;;;;;;2.53;0.70;;;17.10;68.50;;;;;;12669422;23;20197;-82
2022/05/17 23:01:47;;;;;;;2.70;0.80;;;16.90;73.70;;;;;;12689857;23;20197;-82
2022/05/17 23:06:50;;;;;;;0.73;0.73;;;16.80;55.40;;;;;;12692601;23;20169;-83
2022/05/17 23:11:52;;;;;;;1.20;0.90;;;16.60;74.50;;;;;;12646396;23;20182;-82
2022/05/17 23:16:55;;;;;;;2.25;0.70;;;16.80;74.30;;;;;;12672787;23;20193;-82
2022/05/17 23:21:57;;;;;;;1.10;0.73;;;16.90;71.80;;;;;;12689514;23;20169;-82
2022/05/17 23:32:22;;;;;;;0.82;0.63;;;16.50;75.10;;;;;;12690058;23;20173;-82
2022/05/17 23:37:24;;;;;;;1.08;0.60;;;16.10;73.80;;;;;;12672084;23;20216;-82
2022/05/17 23:42:27;;;;;;;2.78;1.15;;;16.80;74.90;;;;;;12670833;23;20555;-82
2022/05/17 23:47:29;;;;;;;1.67;0.63;;;17.00;73.60;;;;;;12672160;23;20197;-82
2022/05/17 23:52:32;;;;;;;0.85;0.68;;;16.20;77.20;;;;;;12670620;23;20173;-82
2022/05/17 23:57:35;;;;;;;1.27;0.75;;;16.40;74.20;;;;;;12672267;23;20189;-82
